createdAt,value
2023-09-18T00:01:29.966Z,85.60
2023-09-18T00:06:38.027Z,85.10
2023-09-18T00:11:49.479Z,85.20
2023-09-18T00:17:02.383Z,85.40
2023-09-18T00:22:17.891Z,84.80
2023-09-18T00:27:21.569Z,85.20
2023-09-18T00:32:42.469Z,85.30
2023-09-18T00:37:48.352Z,85.60
2023-09-18T00:43:11.307Z,85.40
2023-09-18T00:48:25.208Z,85.70
2023-09-18T00:53:29.880Z,86.30
2023-09-18T00:58:36.383Z,86.20
2023-09-18T01:03:50.302Z,85.40
2023-09-18T01:09:03.595Z,84.70
2023-09-18T01:14:25.622Z,84.40
2023-09-18T01:19:51.060Z,84.20
2023-09-18T01:25:00.145Z,85.20
2023-09-18T01:30:11.529Z,85.00
2023-09-18T01:35:21.466Z,88.10
2023-09-18T01:40:33.977Z,87.30
2023-09-18T01:45:46.772Z,87.10
2023-09-18T01:50:55.170Z,86.30
2023-09-18T01:56:11.457Z,85.80
2023-09-18T02:01:32.733Z,85.70
2023-09-18T02:06:39.368Z,85.60
2023-09-18T02:11:49.169Z,85.30
2023-09-18T02:17:01.628Z,85.60
2023-09-18T02:22:15.514Z,85.20
2023-09-18T02:27:58.474Z,85.20
2023-09-18T02:33:21.079Z,85.40
2023-09-18T02:38:29.978Z,84.90
2023-09-18T02:43:52.607Z,85.00
2023-09-18T02:48:59.653Z,85.60
2023-09-18T02:54:10.181Z,85.10
2023-09-18T02:59:34.248Z,85.10
2023-09-18T03:04:39.529Z,85.50
2023-09-18T03:09:58.883Z,85.30
2023-09-18T03:15:18.315Z,85.40
2023-09-18T03:20:25.417Z,86.10
2023-09-18T03:25:48.965Z,85.30
2023-09-18T03:31:16.744Z,85.30
2023-09-18T03:36:26.696Z,85.90
2023-09-18T03:47:00.488Z,85.50
2023-09-18T03:52:11.915Z,85.70
2023-09-18T03:57:20.847Z,85.90
2023-09-18T04:02:32.227Z,86.00
2023-09-18T04:07:39.815Z,86.30
2023-09-18T04:12:45.911Z,86.00
2023-09-18T04:18:06.662Z,86.00
2023-09-18T04:23:27.224Z,86.30
2023-09-18T04:28:36.821Z,86.20
2023-09-18T04:33:54.137Z,85.90
2023-09-18T04:39:05.524Z,86.10
2023-09-18T04:44:13.380Z,86.20
2023-09-18T04:49:19.992Z,86.10
2023-09-18T04:54:32.268Z,86.40
2023-09-18T04:59:39.513Z,86.10
2023-09-18T05:04:55.380Z,86.10
2023-09-18T05:10:05.011Z,86.60
2023-09-18T05:15:12.858Z,86.30
2023-09-18T05:32:05.558Z,86.50
2023-09-18T05:37:08.241Z,86.10
2023-09-18T05:42:12.719Z,86.10
2023-09-18T05:47:20.631Z,86.10
2023-09-18T05:52:26.933Z,86.00
2023-09-18T05:57:29.960Z,85.90
2023-09-18T06:02:34.349Z,86.00
2023-09-18T06:07:41.486Z,86.50
2023-09-18T06:12:44.354Z,86.30
2023-09-18T06:17:51.349Z,86.20
2023-09-18T06:22:54.686Z,85.90
2023-09-18T06:27:57.722Z,85.70
2023-09-18T06:33:02.543Z,85.70
2023-09-18T06:38:08.051Z,85.20
2023-09-18T06:43:12.115Z,85.00
2023-09-18T06:48:20.735Z,84.40
2023-09-18T06:53:34.161Z,84.00
2023-09-18T06:58:41.404Z,84.10
2023-09-18T07:03:50.328Z,83.90
2023-09-18T07:08:53.603Z,83.30
2023-09-18T07:13:56.373Z,82.70
2023-09-18T07:19:00.244Z,82.50
2023-09-18T07:24:03.201Z,82.00
2023-09-18T07:29:11.672Z,81.70
2023-09-18T07:34:16.218Z,81.00
2023-09-18T07:39:19.228Z,80.80
2023-09-18T07:44:26.159Z,80.50
2023-09-18T07:49:31.937Z,80.50
2023-09-18T07:54:34.446Z,80.10
2023-09-18T07:59:37.232Z,79.70
2023-09-18T08:04:44.840Z,79.30
2023-09-18T08:09:47.441Z,78.80
2023-09-18T08:14:50.380Z,78.60
2023-09-18T08:20:00.905Z,77.60
2023-09-18T08:25:05.612Z,76.00
2023-09-18T08:30:10.070Z,76.40
2023-09-18T08:35:15.005Z,75.30
2023-09-18T08:40:18.151Z,74.70
2023-09-18T08:45:28.796Z,74.40
2023-09-18T08:50:34.400Z,73.20
2023-09-18T08:55:47.083Z,72.70
2023-09-18T09:00:50.937Z,72.90
2023-09-18T09:05:55.828Z,72.40
2023-09-18T09:10:58.830Z,71.70
2023-09-18T09:16:01.867Z,71.50
2023-09-18T09:21:06.860Z,70.90
2023-09-18T09:26:21.252Z,70.50
2023-09-18T09:31:26.712Z,69.70
2023-09-18T09:36:32.610Z,70.20
2023-09-18T09:41:35.583Z,69.00
2023-09-18T09:46:48.199Z,69.40
2023-09-18T09:51:52.899Z,68.30
2023-09-18T09:56:55.751Z,67.00
2023-09-18T10:02:20.470Z,68.20
2023-09-18T10:07:25.163Z,66.20
2023-09-18T10:12:31.035Z,66.00
2023-09-18T10:17:37.878Z,65.90
2023-09-18T10:22:47.082Z,64.70
2023-09-18T10:27:52.775Z,65.60
2023-09-18T10:32:57.752Z,64.90
2023-09-18T10:38:03.909Z,65.20
2023-09-18T10:43:12.158Z,63.90
2023-09-18T10:48:18.143Z,63.60
2023-09-18T10:53:26.324Z,64.10
2023-09-18T10:58:29.412Z,63.20
2023-09-18T11:03:35.261Z,62.50
2023-09-18T11:08:47.268Z,60.80
2023-09-18T11:13:53.109Z,61.40
2023-09-18T11:19:19.992Z,61.50
2023-09-18T11:24:31.267Z,61.00
2023-09-18T11:29:42.924Z,60.50
2023-09-18T11:34:47.462Z,60.10
2023-09-18T11:39:51.843Z,60.20
2023-09-18T11:44:55.671Z,59.80
2023-09-18T11:50:00.955Z,59.80
2023-09-18T11:55:09.741Z,60.00
2023-09-18T12:00:20.571Z,59.40
2023-09-18T12:05:24.491Z,59.00
2023-09-18T12:10:29.211Z,59.20
2023-09-18T12:15:32.505Z,58.10
2023-09-18T12:20:41.838Z,58.90
2023-09-18T12:26:08.287Z,58.80
2023-09-18T12:31:12.733Z,57.70
2023-09-18T12:36:20.933Z,58.50
2023-09-18T12:41:32.538Z,58.40
2023-09-18T12:46:36.711Z,58.90
2023-09-18T12:51:39.355Z,58.80
2023-09-18T12:56:43.910Z,59.20
2023-09-18T13:01:49.258Z,59.10
2023-09-18T13:07:12.297Z,59.30
2023-09-18T13:12:16.472Z,59.10
2023-09-18T13:17:19.039Z,59.40
2023-09-18T13:22:25.801Z,59.70
2023-09-18T13:27:31.123Z,59.70
2023-09-18T13:32:39.103Z,59.60
2023-09-18T13:37:51.193Z,59.60
2023-09-18T13:42:55.210Z,59.10
2023-09-18T13:47:57.913Z,57.60
2023-09-18T13:53:03.370Z,56.80
2023-09-18T13:58:08.127Z,56.30
2023-09-18T14:03:10.795Z,56.20
2023-09-18T14:08:13.266Z,56.10
2023-09-18T14:13:17.102Z,55.80
2023-09-18T14:18:19.746Z,55.60
2023-09-18T14:23:22.340Z,56.00
2023-09-18T14:28:26.432Z,55.80
2023-09-18T14:33:29.143Z,55.80
2023-09-18T14:38:31.721Z,55.80
2023-09-18T14:43:35.811Z,55.90
2023-09-18T14:48:38.539Z,55.60
2023-09-18T14:53:41.511Z,55.60
2023-09-18T14:58:45.629Z,56.00
2023-09-18T15:03:48.245Z,54.90
2023-09-18T15:08:50.820Z,55.10
2023-09-18T15:13:54.762Z,55.10
2023-09-18T15:18:58.820Z,55.10
2023-09-18T15:24:01.404Z,55.10
2023-09-18T15:29:05.439Z,54.90
2023-09-18T15:34:08.092Z,55.00
2023-09-18T15:39:10.722Z,55.10
2023-09-18T15:44:15.086Z,55.40
2023-09-18T15:49:17.539Z,55.40
2023-09-18T15:54:19.993Z,55.60
2023-09-18T15:59:26.960Z,55.80
2023-09-18T16:04:29.659Z,55.70
2023-09-18T16:09:34.893Z,55.80
2023-09-18T16:14:38.689Z,55.90
2023-09-18T16:19:41.092Z,55.90
2023-09-18T16:24:43.957Z,56.20
2023-09-18T16:29:47.759Z,56.40
2023-09-18T16:34:50.690Z,56.50
2023-09-18T16:39:53.222Z,56.70
2023-09-18T16:44:57.158Z,56.80
2023-09-18T16:49:59.819Z,56.90
2023-09-18T16:55:02.327Z,57.10
2023-09-18T17:00:08.320Z,57.20
2023-09-18T17:05:10.875Z,57.20
2023-09-18T17:10:13.374Z,57.50
2023-09-18T17:15:25.922Z,57.60
2023-09-18T17:20:30.085Z,57.70
2023-09-18T17:25:32.669Z,57.80
2023-09-18T17:30:36.678Z,57.90
2023-09-18T17:35:40.437Z,58.00
2023-09-18T17:40:43.071Z,58.10
2023-09-18T17:45:50.111Z,58.20
2023-09-18T17:50:52.673Z,58.30
2023-09-18T17:55:56.672Z,58.40
2023-09-18T18:01:00.529Z,58.40
2023-09-18T18:06:08.823Z,58.50
2023-09-18T18:11:11.550Z,58.70
2023-09-18T18:16:15.473Z,58.70
2023-09-18T18:21:18.510Z,58.90
2023-09-18T18:26:23.142Z,59.00
2023-09-18T18:31:27.382Z,59.10
2023-09-18T18:36:30.593Z,59.20
2023-09-18T18:41:33.005Z,59.30
2023-09-18T18:46:37.017Z,59.40
2023-09-18T18:51:39.551Z,59.40
2023-09-18T18:56:42.965Z,59.40
2023-09-18T19:01:55.200Z,59.50
2023-09-18T19:06:58.370Z,59.60
2023-09-18T19:12:04.833Z,59.70
2023-09-18T19:17:09.013Z,59.70
2023-09-18T19:22:14.477Z,59.70
2023-09-18T19:27:17.058Z,59.80
2023-09-18T19:32:24.102Z,59.90
2023-09-18T19:37:26.638Z,59.80
2023-09-18T19:42:29.159Z,59.90
2023-09-18T19:47:33.456Z,60.00
2023-09-18T19:52:36.085Z,60.00
2023-09-18T19:57:38.799Z,60.00
2023-09-18T20:02:43.064Z,60.10
2023-09-18T20:07:46.400Z,60.10
2023-09-18T20:12:52.504Z,60.20
2023-09-18T20:18:15.695Z,60.20
2023-09-18T20:23:18.502Z,60.20
2023-09-18T20:28:20.998Z,60.40
2023-09-18T20:33:24.959Z,60.50
2023-09-18T20:38:30.555Z,60.50
2023-09-18T20:43:33.128Z,60.70
2023-09-18T20:48:37.444Z,60.80
2023-09-18T20:53:40.284Z,60.90
2023-09-18T20:58:42.865Z,60.90
2023-09-18T21:03:46.933Z,61.10
2023-09-18T21:08:49.822Z,61.30
2023-09-18T21:13:55.379Z,61.40
2023-09-18T21:18:59.412Z,61.50
2023-09-18T21:24:02.093Z,61.60
2023-09-18T21:29:04.878Z,61.70
2023-09-18T21:34:08.988Z,61.70
2023-09-18T21:39:11.654Z,61.80
2023-09-18T21:44:14.385Z,62.00
2023-09-18T21:49:18.650Z,62.00
2023-09-18T21:54:21.186Z,62.10
2023-09-18T21:59:23.829Z,62.10
2023-09-18T22:04:27.798Z,62.20
2023-09-18T22:09:30.525Z,62.30
2023-09-18T22:14:33.152Z,62.40
2023-09-18T22:19:37.486Z,62.50
2023-09-18T22:24:40.058Z,62.70
2023-09-18T22:29:43.116Z,62.70
2023-09-18T22:34:46.972Z,62.80
2023-09-18T22:40:02.658Z,63.00
2023-09-18T22:46:01.213Z,63.30
2023-09-18T22:51:59.919Z,63.60
2023-09-18T22:57:04.152Z,63.60
2023-09-18T23:08:57.357Z,64.10
2023-09-18T23:14:02.707Z,64.40
2023-09-18T23:19:05.421Z,64.30
2023-09-18T23:24:08.933Z,64.30
2023-09-18T23:29:12.870Z,64.30
2023-09-18T23:34:15.368Z,64.30
2023-09-18T23:39:18.086Z,65.00
2023-09-18T23:44:22.154Z,64.50
2023-09-18T23:49:24.764Z,64.70
2023-09-18T23:54:30.160Z,64.70
2023-09-18T23:59:33.930Z,64.70
